Data for 09/26/2017

Time Sea-Level Adjusted Pressure Absolute Pressure Temperature Relative Humidity Dew Point   
(mb) (inHg) (mb) (inHg) (C) (F) (%) (C) (F)
00:05 1021 30.15 850 25.1 7.9 46.3 66 2.1 35.7
00:10 1021 30.15 850 25.1 7.9 46.2 66 1.9 35.5
00:15 1021 30.15 850 25.1 7.9 46.2 66 2 35.5
00:20 1021 30.15 851 25.13 7.9 46.2 65 1.8 35.3
00:25 1021 30.15 851 25.13 7.8 46 70 2.6 36.7
00:30 1021 30.15 851 25.13 7.7 45.9 67 1.9 35.4
00:35 1021 30.15 850 25.1 7.7 45.9 68 2.1 35.8
00:40 1021 30.15 850 25.1 7.8 46.1 68 2.3 36.2
00:45 1021 30.15 851 25.13 7.8 46.1 69 2.5 36.5
00:50 1021 30.15 851 25.13 7.7 45.9 68 2.2 36
00:55 1021 30.15 851 25.13 7.6 45.7 68 2.1 35.9
01:00 1021 30.15 851 25.13 7.6 45.7 68 2.1 35.8
01:05 1021 30.15 851 25.13 7.7 45.9 67 1.9 35.5
01:10 1022 30.18 851 25.13 7.8 46.1 67 2.1 35.8
01:15 1022 30.18 851 25.13 7.8 46 65 1.7 35.1
01:20 1022 30.18 851 25.13 7.8 46.1 66 1.9 35.4
01:25 1022 30.18 851 25.13 7.8 46.1 66 1.8 35.3
01:30 1022 30.18 851 25.13 7.9 46.2 66 2 35.6
01:35 1022 30.18 851 25.13 7.9 46.2 69 2.5 36.5
01:40 1022 30.18 851 25.13 7.7 45.8 73 3.1 37.6
01:45 1022 30.18 851 25.13 7.2 44.9 73 2.8 37
01:50 1022 30.18 851 25.13 7.1 44.8 72 2.4 36.3
01:55 1022 30.18 851 25.13 7.3 45.2 68 1.9 35.4
02:00 1022 30.18 851 25.13 7.6 45.6 68 2 35.7
02:05 1022 30.18 851 25.13 7.6 45.6 68 2.2 35.9
02:10 1022 30.18 851 25.13 7.6 45.7 69 2.2 36
02:15 1022 30.18 851 25.13 7.7 45.9 68 2.3 36.1
02:20 1022 30.18 851 25.13 7.7 45.8 68 2.2 35.9
02:25 1022 30.18 851 25.13 7.7 45.8 69 2.4 36.2
02:30 1022 30.18 851 25.13 7.7 45.8 69 2.5 36.4
02:35 1022 30.18 851 25.13 7.6 45.8 69 2.3 36.2
02:40 1022 30.18 851 25.13 7.6 45.8 70 2.4 36.4
02:45 1022 30.18 851 25.13 7.6 45.6 69 2.4 36.2
02:50 1022 30.18 851 25.13 7.5 45.5 70 2.3 36.2
02:55 1022 30.18 851 25.13 7.5 45.5 70 2.4 36.3
03:00 1022 30.18 851 25.13 7.5 45.4 70 2.3 36.1
03:05 1022 30.18 851 25.13 7.4 45.4 70 2.4 36.3
03:10 1022 30.18 851 25.13 7.4 45.2 71 2.5 36.5
03:15 1022 30.18 851 25.13 7.3 45.2 71 2.5 36.5
03:20 1022 30.18 851 25.13 7.3 45.2 71 2.5 36.4
03:25 1022 30.18 851 25.13 7.3 45.2 71 2.4 36.3
03:30 1022 30.18 851 25.13 7.3 45.2 71 2.4 36.3
03:35 1022 30.18 851 25.13 7.3 45.1 71 2.4 36.3
03:40 1022 30.18 851 25.13 7.3 45.2 70 2.3 36.2
03:45 1022 30.18 851 25.13 7.4 45.3 70 2.4 36.3
03:50 1022 30.18 851 25.13 7.5 45.4 70 2.4 36.3
03:55 1022 30.18 851 25.13 7.5 45.4 70 2.4 36.2
04:00 1022 30.18 851 25.13 7.5 45.5 70 2.3 36.2
04:05 1022 30.18 851 25.13 7.5 45.5 70 2.4 36.3
04:10 1022 30.18 851 25.13 7.5 45.5 69 2.2 36
04:15 1022 30.18 851 25.13 7.5 45.5 70 2.4 36.2
04:20 1022 30.18 851 25.13 7.5 45.5 70 2.4 36.3
04:25 1022 30.18 851 25.13 7.5 45.6 70 2.5 36.4
04:30 1022 30.18 851 25.13 7.5 45.6 70 2.5 36.5
04:35 1022 30.18 851 25.13 7.4 45.4 71 2.5 36.4
04:40 1022 30.18 851 25.13 7.4 45.3 71 2.4 36.3
04:45 1022 30.18 851 25.13 7.4 45.3 70 2.4 36.3
04:50 1022 30.18 851 25.13 7.4 45.3 71 2.4 36.4
04:55 1022 30.18 851 25.13 7.4 45.3 71 2.5 36.4
05:00 1022 30.18 851 25.13 7.3 45.2 70 2.3 36.2
05:05 1022 30.18 851 25.13 7.3 45.2 70 2.2 35.9
05:10 1022 30.18 851 25.13 7.3 45.2 70 2.1 35.9
05:15 1022 30.18 851 25.13 7.3 45.2 71 2.5 36.5
05:20 1022 30.18 852 25.16 7.4 45.2 71 2.4 36.4
05:25 1022 30.18 852 25.16 7.4 45.4 71 2.5 36.6
05:30 1022 30.18 852 25.16 7.4 45.2 71 2.6 36.6
05:35 1022 30.18 852 25.16 7.4 45.3 72 2.8 37
05:40 1022 30.18 852 25.16 7.5 45.4 73 3 37.4
05:45 1023 30.21 852 25.16 7.3 45.2 72 2.6 36.6
05:50 1023 30.21 852 25.16 7.3 45.2 70 2.3 36.2
05:55 1023 30.21 852 25.16 7.3 45.2 72 2.6 36.7
06:00 1023 30.21 852 25.16 7.3 45.1 70 2.1 35.8
06:05 1023 30.21 852 25.16 7.3 45.2 71 2.4 36.3
06:10 1023 30.21 852 25.16 7.4 45.2 72 2.6 36.8
06:15 1023 30.21 852 25.16 7.2 45 73 2.6 36.7
06:20 1023 30.21 852 25.16 7.1 44.8 73 2.6 36.7
06:25 1023 30.21 852 25.16 7.3 45.1 73 2.8 37
06:30 1023 30.21 852 25.16 7.3 45.1 74 2.9 37.2
06:35 1023 30.21 852 25.16 7.3 45.1 73 2.7 36.9
06:40 1023 30.21 852 25.16 7.3 45.1 72 2.6 36.7
06:45 1023 30.21 852 25.16 7.3 45.2 74 3.1 37.5
06:50 1023 30.21 852 25.16 7.4 45.4 73 2.9 37.3
06:55 1023 30.21 852 25.16 7.5 45.5 74 3.1 37.6
07:00 1023 30.21 852 25.16 7.5 45.5 73 3 37.4
07:05 1023 30.21 852 25.16 7.5 45.6 73 3 37.5
07:10 1023 30.21 853 25.19 7.6 45.7 74 3.2 37.8
07:15 1023 30.21 853 25.19 7.6 45.8 75 3.4 38.2
07:20 1023 30.21 853 25.19 7.6 45.7 74 3.3 38
07:25 1023 30.21 853 25.19 7.6 45.7 75 3.5 38.2
07:30 1023 30.21 853 25.19 7.5 45.6 75 3.5 38.3
07:35 1023 30.21 853 25.19 7.7 45.8 74 3.3 37.9
07:40 1024 30.24 853 25.19 7.9 46.3 72 3.3 38
07:45 1024 30.24 853 25.19 8.1 46.5 71 3.2 37.8
07:50 1024 30.24 853 25.19 8.1 46.6 71 3.1 37.6
07:55 1024 30.24 853 25.19 8.1 46.5 70 3 37.5
08:00 1024 30.24 853 25.19 8.1 46.6 70 2.9 37.3
08:05 1024 30.24 853 25.19 8.4 47.1 69 3 37.4
08:10 1024 30.24 853 25.19 8.6 47.5 68 3 37.5
08:15 1024 30.24 853 25.19 9.2 48.5 66 3.3 37.9
08:20 1024 30.24 853 25.19 9.7 49.5 63 3 37.5
08:25 1024 30.24 853 25.19 9.7 49.4 63 2.9 37.3
08:30 1024 30.24 853 25.19 9.3 48.7 63 2.7 36.9
08:35 1024 30.24 853 25.19 9.2 48.6 64 2.7 36.9
08:40 1024 30.24 853 25.19 9.5 49.1 62 2.6 36.7
08:45 1024 30.24 853 25.19 9.5 49.1 63 2.9 37.2
08:50 1024 30.24 853 25.19 9.7 49.5 61 2.7 36.8
08:55 1024 30.24 853 25.19 9.8 49.6 61 2.6 36.7
09:00 1024 30.24 854 25.22 9.8 49.7 61 2.8 37
09:05 1024 30.24 854 25.22 10.3 50.6 58 2.5 36.5
09:10 1024 30.24 854 25.22 10.7 51.2 58 2.9 37.2
09:15 1024 30.24 854 25.22 10.4 50.8 58 2.6 36.6
09:20 1024 30.24 854 25.22 10.2 50.4 59 2.6 36.7
09:25 1024 30.24 854 25.22 10.5 50.9 58 2.6 36.7
09:30 1024 30.24 854 25.22 10.8 51.4 56 2.3 36.1
09:35 1025 30.27 854 25.22 10.7 51.2 56 2.3 36.2
09:40 1025 30.27 854 25.22 10.8 51.4 56 2.4 36.4
09:45 1025 30.27 854 25.22 11.2 52.1 54 2.4 36.3
09:50 1025 30.27 854 25.22 11.3 52.3 54 2.4 36.3
09:55 1025 30.27 854 25.22 11.3 52.4 53 2.2 36
10:00 1025 30.27 854 25.22 11.4 52.6 53 2.3 36.1
10:05 1025 30.27 854 25.22 11.4 52.4 53 2.2 36
10:10 1025 30.27 854 25.22 11.5 52.8 53 2.3 36.1
10:15 1025 30.27 854 25.22 11.9 53.3 51 2.2 35.9
10:20 1025 30.27 854 25.22 12.1 53.7 51 2.4 36.3
10:25 1025 30.27 854 25.22 12.2 53.9 50 2.1 35.8
10:30 1025 30.27 854 25.22 12.5 54.4 49 2 35.5
10:35 1025 30.27 854 25.22 12.5 54.4 49 2.1 35.7
10:40 1025 30.27 854 25.22 12.7 54.8 47 1.9 35.4
10:45 1025 30.27 854 25.22 12.7 54.8 48 2.1 35.8
10:50 1025 30.27 854 25.22 12.9 55.2 48 2.1 35.8
10:55 1025 30.27 854 25.22 12.8 55.1 48 2.1 35.7
11:00 1025 30.27 854 25.22 13.4 56 46 2 35.5
11:05 1025 30.27 854 25.22 14.3 57.8 43 2 35.7
11:10 1025 30.27 854 25.22 14.5 58 43 2 35.7
11:15 1025 30.27 854 25.22 14.1 57.3 45 2.3 36.1
11:20 1025 30.27 854 25.22 13.5 56.3 45 1.9 35.4
11:25 1025 30.27 854 25.22 13.7 56.7 46 2.5 36.5
11:30 1025 30.27 854 25.22 13.7 56.6 46 2.3 36.1
11:35 1025 30.27 854 25.22 13.5 56.2 46 2.3 36.1
11:40 1025 30.27 854 25.22 13.4 56 46 2.2 35.9
11:45 1025 30.27 854 25.22 13.3 56 47 2.4 36.3
11:50 1025 30.27 854 25.22 13.3 55.9 48 2.6 36.8
11:55 1025 30.27 854 25.22 13 55.5 48 2.4 36.3
12:00 1025 30.27 854 25.22 13 55.4 49 2.5 36.4
12:05 1025 30.27 854 25.22 12.7 54.9 50 2.6 36.6
12:10 1025 30.27 854 25.22 13.1 55.6 47 2.1 35.8
12:15 1024 30.24 854 25.22 13.9 56.9 45 2.3 36.2
12:20 1024 30.24 854 25.22 14.5 58.1 43 2 35.6
12:25 1024 30.24 854 25.22 14.4 58 45 2.8 37.1
12:30 1024 30.24 854 25.22 14 57.2 45 2.2 36
12:35 1024 30.24 854 25.22 14.3 57.8 43 2 35.6
12:40 1024 30.24 854 25.22 15 59 42 2.3 36.1
12:45 1024 30.24 854 25.22 14.6 58.2 46 3.2 37.8
12:50 1024 30.24 854 25.22 13.8 56.8 45 2.3 36.1
12:55 1024 30.24 853 25.19 13.9 57 46 2.6 36.7
13:00 1024 30.24 854 25.22 13.6 56.5 46 2.3 36.1
13:05 1024 30.24 854 25.22 13.8 56.9 45 2.1 35.9
13:10 1024 30.24 853 25.19 14.7 58.4 41 1.6 34.9
13:15 1024 30.24 853 25.19 15.7 60.3 40 2.1 35.9
13:20 1024 30.24 853 25.19 15.7 60.3 38 1.7 35
13:25 1024 30.24 853 25.19 15.6 60 40 2.1 35.8
13:30 1024 30.24 853 25.19 15.2 59.4 41 2 35.6
13:35 1024 30.24 853 25.19 14.6 58.3 42 2 35.6
13:40 1024 30.24 853 25.19 15 59.1 41 1.9 35.3
13:45 1024 30.24 853 25.19 15.1 59.2 40 1.8 35.2
13:50 1024 30.24 853 25.19 15.2 59.4 37 0.8 33.4
13:55 1024 30.24 853 25.19 15.6 60.1 35 0.2 32.4
14:00 1024 30.24 853 25.19 16 60.8 36 0.8 33.5
14:05 1024 30.24 853 25.19 16.1 61 35 0.9 33.5
14:10 1024 30.24 853 25.19 16.3 61.4 35 1 33.9
14:15 1024 30.24 853 25.19 16.2 61.1 36 1.3 34.4
14:20 1024 30.24 853 25.19 15.8 60.5 36 1 33.9
14:25 1024 30.24 853 25.19 16.2 61.2 35 1 33.8
14:30 1024 30.24 853 25.19 16.6 61.9 34 0.9 33.6
14:35 1024 30.24 853 25.19 16.8 62.2 35 1.4 34.5
14:40 1024 30.24 853 25.19 17 62.7 34 1.1 33.9
14:45 1024 30.24 853 25.19 16.2 61.2 39 2.3 36.2
14:50 1024 30.24 853 25.19 16 60.7 38 1.6 34.9
14:55 1024 30.24 853 25.19 16.2 61.1 37 1.6 35
15:00 1024 30.24 853 25.19 15.6 60 38 1.3 34.3
15:05 1024 30.24 853 25.19 15.6 60.1 38 1.4 34.6
15:10 1024 30.24 853 25.19 15 59 39 1.2 34.2
15:15 1024 30.24 853 25.19 14.9 58.8 40 1.4 34.4
15:20 1024 30.24 853 25.19 14.8 58.7 39 1 33.9
15:25 1024 30.24 853 25.19 15.1 59.2 38 0.9 33.5
15:30 1024 30.24 853 25.19 15.3 59.6 38 1.1 33.9
15:35 1024 30.24 853 25.19 15.9 60.6 35 0.5 32.9
15:40 1024 30.24 853 25.19 16.5 61.7 34 0.7 33.2
15:45 1024 30.24 853 25.19 16.6 61.9 34 0.6 33.1
15:50 1024 30.24 853 25.19 16.9 62.3 33 0.6 33.2
15:55 1024 30.24 853 25.19 16.6 62 35 1.2 34.2
16:00 1024 30.24 853 25.19 16.4 61.5 34 0.8 33.4
16:05 1024 30.24 853 25.19 16.8 62.3 33 0.6 33
16:10 1024 30.24 853 25.19 16.7 62 34 0.8 33.4
16:15 1024 30.24 853 25.19 16.3 61.4 34 0.6 33.1
16:20 1024 30.24 853 25.19 16.6 61.9 32 0.1 32.1
16:25 1024 30.24 853 25.19 16.5 61.6 33 0.3 32.5
16:30 1024 30.24 853 25.19 16.5 61.7 33 0.2 32.3
16:35 1024 30.24 853 25.19 16.3 61.3 32 -0.2 31.7
16:40 1024 30.24 853 25.19 16.4 61.5 33 0.1 32.1
16:45 1024 30.24 853 25.19 16.3 61.4 35 0.8 33.5
16:50 1024 30.24 853 25.19 15.7 60.3 38 1.7 35.1
16:55 1024 30.24 853 25.19 15.5 60 35 0.4 32.7
17:00 1024 30.24 853 25.19 15.5 60 37 0.9 33.6
17:05 1024 30.24 853 25.19 15.5 59.9 36 0.8 33.4
17:10 1024 30.24 853 25.19 15.2 59.4 39 1.6 34.8
17:15 1024 30.24 853 25.19 15.2 59.3 37 0.6 33
17:20 1024 30.24 853 25.19 15.4 59.7 38 1.2 34.2
17:25 1024 30.24 853 25.19 15.1 59.3 39 1.4 34.5
17:30 1024 30.24 853 25.19 15 59.1 38 0.9 33.5
17:35 1024 30.24 853 25.19 14.7 58.5 40 1.3 34.4
17:40 1024 30.24 853 25.19 14.3 57.7 40 1.1 33.9
17:45 1024 30.24 853 25.19 14 57.1 43 1.5 34.8
17:50 1024 30.24 854 25.22 13.9 57.1 41 1 33.8
17:55 1024 30.24 854 25.22 13.8 56.9 42 1.3 34.3
18:00 1024 30.24 854 25.22 13.7 56.6 42 1.2 34.2
18:05 1024 30.24 854 25.22 13.6 56.4 42 0.9 33.5
18:10 1024 30.24 854 25.22 13.6 56.4 42 0.8 33.5
18:15 1024 30.24 854 25.22 13.5 56.3 42 0.8 33.5
18:20 1025 30.27 854 25.22 13.4 56.1 42 0.9 33.6
18:25 1024 30.24 854 25.22 13.4 56 42 0.7 33.2
18:30 1024 30.24 854 25.22 13.3 55.9 47 2.2 36
18:35 1024 30.24 854 25.22 12.4 54.3 55 3.6 38.4
18:40 1025 30.27 854 25.22 11.5 52.8 57 3.4 38.1
18:45 1025 30.27 854 25.22 11.1 52 58 3.1 37.6
18:50 1024 30.24 854 25.22 10.7 51.2 59 3 37.4
18:55 1024 30.24 854 25.22 10.3 50.5 60 2.8 37.1
19:00 1025 30.27 854 25.22 10.1 50.1 61 2.8 37.1
19:05 1025 30.27 854 25.22 9.9 49.8 61 2.7 36.8
19:10 1025 30.27 854 25.22 9.8 49.7 61 2.7 36.9
19:15 1025 30.27 854 25.22 9.7 49.4 62 2.8 37
19:20 1025 30.27 854 25.22 9.5 49 62 2.7 36.8
19:25 1025 30.27 854 25.22 9.3 48.8 63 2.7 36.9
19:30 1025 30.27 854 25.22 9.2 48.5 63 2.6 36.6
19:35 1025 30.27 854 25.22 9.2 48.5 63 2.5 36.6
19:40 1025 30.27 854 25.22 9.3 48.7 62 2.4 36.4
19:45 1025 30.27 854 25.22 9.2 48.6 63 2.6 36.7
19:50 1025 30.27 854 25.22 9.1 48.3 64 2.6 36.6
19:55 1025 30.27 854 25.22 8.9 48 64 2.5 36.5
20:00 1025 30.27 854 25.22 8.7 47.7 65 2.5 36.4
20:05 1025 30.27 854 25.22 8.5 47.4 65 2.3 36.2
20:10 1025 30.27 854 25.22 8.5 47.3 66 2.4 36.4
20:15 1025 30.27 854 25.22 8.3 47 65 2.1 35.8
20:20 1025 30.27 854 25.22 8.4 47.1 64 2.1 35.7
20:25 1025 30.27 854 25.22 8.4 47 64 2 35.5
20:30 1025 30.27 854 25.22 8.4 47 64 2 35.6
20:35 1025 30.27 854 25.22 8.3 47 64 1.9 35.5
20:40 1025 30.27 854 25.22 8.4 47.1 63 1.9 35.4
20:45 1025 30.27 854 25.22 8.5 47.3 63 1.8 35.3
20:50 1025 30.27 854 25.22 8.6 47.4 62 1.8 35.3
20:55 1025 30.27 855 25.25 8.6 47.5 62 1.7 35.1
21:00 1025 30.27 855 25.25 8.7 47.7 60 1.5 34.7
21:05 1025 30.27 855 25.25 8.9 47.9 61 1.8 35.3
21:10 1025 30.27 855 25.25 8.8 47.9 61 1.8 35.3
21:15 1025 30.27 855 25.25 8.9 48 60 1.7 35
21:20 1025 30.27 855 25.25 8.9 48.1 60 1.6 34.9
21:25 1025 30.27 855 25.25 8.9 47.9 60 1.6 35
21:30 1025 30.27 855 25.25 8.7 47.7 61 1.7 35.1
21:35 1026 30.3 855 25.25 8.7 47.6 62 1.7 35.1
21:40 1026 30.3 855 25.25 8.5 47.3 62 1.7 35.1
21:45 1026 30.3 855 25.25 8.3 46.9 63 1.7 35
21:50 1026 30.3 855 25.25 8.1 46.7 64 1.7 35
21:55 1026 30.3 855 25.25 8.1 46.5 64 1.6 34.9
22:00 1026 30.3 855 25.25 8 46.5 63 1.3 34.4
22:05 1025 30.27 855 25.25 8.3 46.9 61 1.3 34.3
22:10 1025 30.27 855 25.25 8.4 47.2 62 1.6 34.9
22:15 1025 30.27 855 25.25 8.2 46.7 63 1.6 34.9
22:20 1026 30.3 855 25.25 7.9 46.2 65 1.7 35.1
22:25 1025 30.27 855 25.25 8 46.4 63 1.4 34.5
22:30 1025 30.27 855 25.25 8.1 46.5 64 1.7 35
22:35 1025 30.27 855 25.25 8 46.4 63 1.4 34.5
22:40 1026 30.3 855 25.25 7.9 46.2 64 1.6 34.8
22:45 1026 30.3 855 25.25 7.6 45.6 65 1.5 34.8
22:50 1026 30.3 855 25.25 7.5 45.6 63 1 33.9
22:55 1026 30.3 855 25.25 7.7 45.8 63 1.1 34
23:00 1026 30.3 855 25.25 8 46.4 62 1.2 34.2
23:05 1026 30.3 855 25.25 8 46.5 62 1.3 34.3
23:10 1026 30.3 855 25.25 7.9 46.2 62 1.1 34
23:15 1026 30.3 855 25.25 7.9 46.2 62 1 33.8
23:20 1026 30.3 855 25.25 7.9 46.2 62 1.2 34.1
23:25 1026 30.3 855 25.25 7.7 45.9 63 1.2 34.1
23:30 1026 30.3 855 25.25 7.5 45.5 64 1.1 34
23:35 1026 30.3 855 25.25 7.3 45.1 64 1 33.7
23:40 1026 30.3 855 25.25 7.4 45.3 64 1 33.7
23:45 1026 30.3 855 25.25 7.4 45.3 64 1.1 33.9
23:50 1026 30.3 855 25.25 7.3 45.2 64 1 33.7
23:55 1026 30.3 855 25.25 7.2 44.9 65 1 33.8
24:00 1026 30.3 855 25.25 7.1 44.7 65 0.9 33.6